Time;durP1;ratioP1;P1;durP2;ratioP2;P2;SDS_P1;SDS_P2;PMS_P1;PMS_P2;Temp;Humidity;BMP_temperature;BMP_pressure;BME280_temperature;BME280_humidity;BME280_pressure;Samples;Min_cycle;Max_cycle;Signal;HPM_P1;HPM_P2
2022/09/22 00:02:04;;;;;;;;;;;;;;;10.07;70.95;102434.25;4984469;28;19910;-60
2022/09/22 00:04:29;;;;;;;;;;;;;;;10.05;71.25;102435.91;4978355;28;19943;-59
2022/09/22 00:06:56;;;;;;;;;;;;;;;10.03;71.01;102434.91;4960277;28;19948;-59
2022/09/22 00:09:21;;;;;;;;;;;;;;;10.01;71.22;102427.88;4978732;28;19918;-59
2022/09/22 00:11:48;;;;;;;;;;;;;;;9.99;71.00;102426.88;4977298;28;19910;-60
2022/09/22 00:14:15;;;;;;;;;;;;;;;9.96;71.42;102421.50;4975634;28;19965;-60
2022/09/22 00:16:45;;;;;;;;;;;;;;;9.96;71.32;102424.13;4977831;28;19934;-59
2022/09/22 00:19:13;;;;;;;;;;;;;;;9.92;71.36;102425.66;4979537;28;20103;-59
2022/09/22 00:21:38;;;;;;;;;;;;;;;9.88;71.56;102429.81;4977765;28;20005;-59
2022/09/22 00:24:05;;;;;;;;;;;;;;;9.86;71.31;102423.66;4977107;28;19910;-59
2022/09/22 00:26:30;;;;;;;;;;;;;;;9.83;71.32;102426.06;4978166;28;19916;-60
2022/09/22 00:28:56;;;;;;;;;;;;;;;9.82;71.44;102424.31;4977765;28;19910;-59
2022/09/22 00:31:23;;;;;;;;;;;;;;;9.79;71.55;102423.22;4976980;28;19917;-59
2022/09/22 00:33:48;;;;;;;;;;;;;;;9.77;71.69;102427.47;4976703;28;19950;-59
2022/09/22 00:36:14;;;;;;;;;;;;;;;9.75;71.81;102432.59;4978104;28;19924;-60
2022/09/22 00:38:40;;;;;;;;;;;;;;;9.73;71.74;102432.53;4977613;28;20057;-60
2022/09/22 00:41:09;;;;;;;;;;;;;;;9.72;71.97;102422.03;4986649;28;19910;-60
2022/09/22 00:43:36;;;;;;;;;;;;;;;9.69;72.09;102421.84;4980394;28;19962;-59
2022/09/22 00:46:07;;;;;;;;;;;;;;;9.67;72.06;102424.38;4980523;28;19918;-59
2022/09/22 00:48:36;;;;;;;;;;;;;;;9.65;72.12;102423.41;4977180;28;20232;-60
2022/09/22 00:51:03;;;;;;;;;;;;;;;9.63;71.87;102421.53;4977035;28;19926;-59
2022/09/22 00:53:30;;;;;;;;;;;;;;;9.61;71.91;102420.56;4976867;28;20038;-59
2022/09/22 00:56:02;;;;;;;;;;;;;;;9.58;72.04;102421.28;4976924;28;20111;-60
2022/09/22 00:58:37;;;;;;;;;;;;;;;9.57;71.82;102419.50;4975653;28;20079;-59
2022/09/22 01:01:03;;;;;;;;;;;;;;;9.53;71.89;102415.84;4981586;28;19918;-59
2022/09/22 01:03:28;;;;;;;;;;;;;;;9.51;71.92;102407.03;4981854;28;20237;-59
2022/09/22 01:05:56;;;;;;;;;;;;;;;9.50;72.09;102409.56;4986526;28;19910;-59
2022/09/22 01:08:23;;;;;;;;;;;;;;;9.47;72.20;102409.41;4983007;28;20183;-59
2022/09/22 01:10:48;;;;;;;;;;;;;;;9.46;72.31;102397.22;4978560;28;19910;-59
2022/09/22 01:13:32;;;;;;;;;;;;;;;9.44;72.44;102397.13;4976159;28;19910;-59
2022/09/22 01:16:16;;;;;;;;;;;;;;;9.39;72.68;102396.88;4977000;28;20064;-59
2022/09/22 01:19:16;;;;;;;;;;;;;;;9.37;72.55;102397.59;4977074;28;19930;-59
2022/09/22 01:21:57;;;;;;;;;;;;;;;9.34;72.65;102387.97;4935618;28;20102;-59
2022/09/22 01:24:34;;;;;;;;;;;;;;;9.34;72.92;102392.25;4974161;28;19917;-59
2022/09/22 01:27:08;;;;;;;;;;;;;;;9.30;72.88;102387.69;4983091;28;19910;-59
2022/09/22 01:29:48;;;;;;;;;;;;;;;9.28;72.75;102384.13;4981922;28;19910;-60
2022/09/22 01:32:31;;;;;;;;;;;;;;;9.27;72.65;102395.34;4980568;28;20212;-59
2022/09/22 01:35:02;;;;;;;;;;;;;;;9.23;72.80;102383.88;4982062;28;19972;-60
2022/09/22 01:37:30;;;;;;;;;;;;;;;9.21;72.74;102377.69;4980837;28;19952;-59
2022/09/22 01:40:01;;;;;;;;;;;;;;;9.18;72.71;102382.72;4981815;28;19944;-59
2022/09/22 01:42:30;;;;;;;;;;;;;;;9.16;72.56;102380.03;4981711;28;19910;-58
2022/09/22 01:44:55;;;;;;;;;;;;;;;9.14;72.86;102376.47;4981651;28;20155;-59
2022/09/22 01:47:20;;;;;;;;;;;;;;;9.12;72.98;102378.09;4984905;28;20144;-59
2022/09/22 01:49:49;;;;;;;;;;;;;;;9.10;72.78;102374.53;4999020;28;19940;-60
2022/09/22 01:52:17;;;;;;;;;;;;;;;9.09;72.92;102377.03;4995505;28;19928;-60
2022/09/22 01:54:45;;;;;;;;;;;;;;;9.07;72.83;102369.16;5003575;28;19925;-60
2022/09/22 01:57:20;;;;;;;;;;;;;;;9.06;72.85;102369.97;4987446;28;19910;-60
2022/09/22 01:59:54;;;;;;;;;;;;;;;9.04;72.93;102362.06;4986435;28;19914;-59
2022/09/22 02:02:28;;;;;;;;;;;;;;;9.02;72.96;102360.19;4981230;28;19937;-60
2022/09/22 02:04:57;;;;;;;;;;;;;;;9.00;73.05;102365.31;4980104;28;19984;-60
2022/09/22 02:07:24;;;;;;;;;;;;;;;8.98;72.90;102353.94;4979682;28;19910;-59
2022/09/22 02:09:50;;;;;;;;;;;;;;;8.96;73.01;102360.75;4976638;28;19910;-59
2022/09/22 02:12:17;;;;;;;;;;;;;;;8.95;72.96;102352.88;4964296;28;19954;-59
2022/09/22 02:14:43;;;;;;;;;;;;;;;8.93;73.05;102357.09;4983231;28;19993;-59
2022/09/22 02:17:09;;;;;;;;;;;;;;;8.91;73.19;102354.44;4986385;28;19929;-64
2022/09/22 02:19:38;;;;;;;;;;;;;;;8.88;72.89;102346.47;4984215;28;20149;-64
2022/09/22 02:22:04;;;;;;;;;;;;;;;8.86;72.91;102351.59;4979869;28;19937;-64
2022/09/22 02:24:31;;;;;;;;;;;;;;;8.83;72.89;102343.59;4979551;28;19926;-64
2022/09/22 02:26:57;;;;;;;;;;;;;;;8.81;72.84;102347.81;4978979;28;19910;-64
2022/09/22 02:29:24;;;;;;;;;;;;;;;8.79;72.65;102336.47;4980122;28;19924;-64
2022/09/22 02:31:50;;;;;;;;;;;;;;;8.77;72.84;102345.88;4978306;28;21003;-64
2022/09/22 02:34:15;;;;;;;;;;;;;;;8.76;72.89;102346.69;4962103;28;19918;-64
2022/09/22 02:36:40;;;;;;;;;;;;;;;8.74;72.91;102340.50;4970169;28;19917;-64
2022/09/22 02:39:08;;;;;;;;;;;;;;;8.73;73.10;102341.28;4988658;28;19937;-64
2022/09/22 02:41:33;;;;;;;;;;;;;;;8.71;73.27;102340.34;4992351;28;19960;-64
2022/09/22 02:44:03;;;;;;;;;;;;;;;8.69;73.16;102331.56;4984731;28;20114;-64
2022/09/22 02:46:37;;;;;;;;;;;;;;;8.68;73.23;102329.78;4979401;28;19910;-60
2022/09/22 02:49:05;;;;;;;;;;;;;;;8.66;73.30;102327.09;4988479;28;19918;-60
2022/09/22 02:51:30;;;;;;;;;;;;;;;8.66;73.25;102331.38;4993898;28;20049;-59
2022/09/22 02:53:56;;;;;;;;;;;;;;;8.64;73.14;102323.50;4986979;28;20158;-59
2022/09/22 02:56:22;;;;;;;;;;;;;;;8.61;73.34;102325.03;4986383;28;20213;-59
2022/09/22 02:58:47;;;;;;;;;;;;;;;8.60;73.59;102320.66;4986520;28;19922;-60
2022/09/22 03:01:12;;;;;;;;;;;;;;;8.57;73.90;102329.16;4989979;28;19989;-60
2022/09/22 03:03:37;;;;;;;;;;;;;;;8.55;74.00;102317.81;4998842;28;20202;-60
2022/09/22 03:06:03;;;;;;;;;;;;;;;8.50;73.72;102317.56;4987042;28;20040;-59
2022/09/22 03:08:28;;;;;;;;;;;;;;;8.49;73.60;102318.34;4992632;28;19985;-59
2022/09/22 03:10:53;;;;;;;;;;;;;;;8.47;73.74;102319.97;4988223;28;19922;-60
2022/09/22 03:13:18;;;;;;;;;;;;;;;8.44;73.91;102319.78;4988623;28;19910;-59
2022/09/22 03:15:44;;;;;;;;;;;;;;;8.41;73.79;102314.38;4992836;28;19910;-59
2022/09/22 03:18:10;;;;;;;;;;;;;;;8.39;73.68;102316.00;4980507;28;19941;-59
2022/09/22 03:20:35;;;;;;;;;;;;;;;8.38;73.45;102311.63;4978835;28;20274;-60
2022/09/22 03:23:00;;;;;;;;;;;;;;;8.36;73.37;102315.84;4985090;28;20180;-59
2022/09/22 03:25:25;;;;;;;;;;;;;;;8.34;73.55;102322.63;4995682;28;19905;-59
2022/09/22 03:27:50;;;;;;;;;;;;;;;8.32;73.56;102309.56;4979585;28;19946;-59
2022/09/22 03:30:16;;;;;;;;;;;;;;;8.31;73.52;102307.81;4985371;28;19981;-59
2022/09/22 03:32:41;;;;;;;;;;;;;;;8.29;73.76;102306.81;4988530;28;19941;-59
2022/09/22 03:35:06;;;;;;;;;;;;;;;8.30;73.63;102310.31;4994087;28;19910;-59
2022/09/22 03:37:32;;;;;;;;;;;;;;;8.28;73.79;102306.72;4983725;28;20037;-59
2022/09/22 03:39:57;;;;;;;;;;;;;;;8.27;73.83;102304.91;4990861;28;19910;-59
2022/09/22 03:42:23;;;;;;;;;;;;;;;8.25;74.05;102306.56;4988498;28;19910;-59
2022/09/22 03:44:48;;;;;;;;;;;;;;;8.25;74.00;102301.34;4998599;28;20072;-59
2022/09/22 03:47:13;;;;;;;;;;;;;;;8.21;74.30;102302.88;4983842;28;19937;-59
2022/09/22 03:49:38;;;;;;;;;;;;;;;8.18;74.30;102301.03;4981298;28;20181;-59
2022/09/22 03:52:03;;;;;;;;;;;;;;;8.16;74.20;102302.63;4983616;28;19910;-59
2022/09/22 03:54:29;;;;;;;;;;;;;;;8.16;74.26;102301.72;4993531;28;19914;-59
2022/09/22 03:56:54;;;;;;;;;;;;;;;8.15;73.93;102303.44;4996666;28;19925;-59
2022/09/22 03:59:19;;;;;;;;;;;;;;;8.12;74.08;102297.16;4981875;28;20157;-59
2022/09/22 04:01:45;;;;;;;;;;;;;;;8.12;73.83;102295.44;4982581;28;19913;-59
2022/09/22 04:04:10;;;;;;;;;;;;;;;8.10;74.06;102297.09;4977041;28;19909;-59
2022/09/22 04:06:36;;;;;;;;;;;;;;;8.10;73.95;102296.19;4988006;28;20168;-59
2022/09/22 04:09:02;;;;;;;;;;;;;;;8.08;74.21;102293.50;4985493;28;20176;-59
2022/09/22 04:11:27;;;;;;;;;;;;;;;8.08;74.28;102290.00;4979931;28;19922;-59
2022/09/22 04:13:53;;;;;;;;;;;;;;;8.07;74.02;102289.13;4976026;28;20288;-59
2022/09/22 04:16:18;;;;;;;;;;;;;;;8.06;74.16;102295.13;4974862;28;20058;-63
2022/09/22 04:18:43;;;;;;;;;;;;;;;8.04;74.44;102291.56;4977368;28;20012;-64
2022/09/22 04:21:08;;;;;;;;;;;;;;;8.00;74.55;102289.56;4977559;28;19988;-65
2022/09/22 04:23:34;;;;;;;;;;;;;;;7.99;74.61;102292.97;4977183;28;19938;-64
2022/09/22 04:26:00;;;;;;;;;;;;;;;7.96;74.55;102282.41;4976031;28;19914;-64
2022/09/22 04:28:26;;;;;;;;;;;;;;;7.94;74.93;102291.81;4989683;28;19916;-64
2022/09/22 04:30:51;;;;;;;;;;;;;;;7.90;75.08;102284.66;4997375;28;19918;-64
2022/09/22 04:33:16;;;;;;;;;;;;;;;7.85;74.88;102284.41;4993757;28;20137;-64
2022/09/22 04:35:42;;;;;;;;;;;;;;;7.82;75.01;102279.94;4990537;28;19992;-64
2022/09/22 04:38:09;;;;;;;;;;;;;;;7.81;75.05;102288.50;4976462;28;20038;-64
2022/09/22 04:40:34;;;;;;;;;;;;;;;7.79;75.03;102284.94;4978075;28;20133;-64
2022/09/22 04:42:59;;;;;;;;;;;;;;;7.78;74.80;102277.06;4976971;28;19910;-64
2022/09/22 04:45:25;;;;;;;;;;;;;;;7.77;74.88;102276.16;4976808;28;19918;-64
2022/09/22 04:47:51;;;;;;;;;;;;;;;7.77;74.85;102280.47;4961052;28;19917;-64
2022/09/22 04:50:17;;;;;;;;;;;;;;;7.75;74.45;102277.78;4958780;28;19917;-64
2022/09/22 04:52:47;;;;;;;;;;;;;;;7.74;74.90;102275.09;4977587;28;21695;-64
2022/09/22 04:55:12;;;;;;;;;;;;;;;7.70;75.06;102280.91;4977124;28;19910;-64
2022/09/22 04:57:37;;;;;;;;;;;;;;;7.68;75.30;102285.13;4975810;28;19957;-64
2022/09/22 05:00:03;;;;;;;;;;;;;;;7.64;75.25;102278.84;4977095;28;20994;-64
2022/09/22 05:02:29;;;;;;;;;;;;;;;7.62;75.13;102283.06;4978277;28;19973;-64
2022/09/22 05:04:54;;;;;;;;;;;;;;;7.61;75.30;102283.88;4977358;28;20049;-64
2022/09/22 05:07:19;;;;;;;;;;;;;;;7.59;75.42;102277.66;4976891;28;19917;-64
2022/09/22 05:09:45;;;;;;;;;;;;;;;7.58;75.47;102281.09;4976899;28;20042;-64
2022/09/22 05:12:10;;;;;;;;;;;;;;;7.57;75.13;102281.88;4979144;28;19917;-64
2022/09/22 05:14:35;;;;;;;;;;;;;;;7.56;75.04;102280.09;4982442;28;19910;-64
2022/09/22 05:17:01;;;;;;;;;;;;;;;7.53;75.23;102277.31;4983676;28;19957;-64
2022/09/22 05:19:26;;;;;;;;;;;;;;;7.52;75.18;102278.09;4982361;28;19929;-64
2022/09/22 05:21:53;;;;;;;;;;;;;;;7.49;75.16;102284.91;4965782;28;20100;-64
2022/09/22 05:24:18;;;;;;;;;;;;;;;7.48;74.93;102285.72;4987734;28;20101;-64
2022/09/22 05:26:43;;;;;;;;;;;;;;;7.47;75.11;102288.22;4986931;28;19989;-63
2022/09/22 05:29:09;;;;;;;;;;;;;;;7.45;74.88;102289.84;4984364;28;19906;-64
2022/09/22 05:31:34;;;;;;;;;;;;;;;7.43;75.08;102288.84;4989988;28;19918;-64
2022/09/22 05:33:59;;;;;;;;;;;;;;;7.42;75.26;102292.25;4976471;28;19932;-64
2022/09/22 05:36:24;;;;;;;;;;;;;;;7.41;75.10;102290.44;4976420;28;20172;-64
2022/09/22 05:38:50;;;;;;;;;;;;;;;7.39;75.40;102292.97;4976159;28;19910;-64
2022/09/22 05:41:15;;;;;;;;;;;;;;;7.38;75.31;102295.47;4989779;28;19980;-64
2022/09/22 05:43:41;;;;;;;;;;;;;;;7.37;75.24;102291.06;5000886;28;19910;-64
2022/09/22 05:46:06;;;;;;;;;;;;;;;7.35;75.79;102295.28;4985981;28;19906;-64
2022/09/22 05:48:31;;;;;;;;;;;;;;;7.34;75.56;102288.28;4976045;28;19914;-64
2022/09/22 05:50:57;;;;;;;;;;;;;;;7.33;75.57;102300.38;4976164;28;19965;-64
2022/09/22 05:53:22;;;;;;;;;;;;;;;7.32;75.69;102296.88;4976598;28;20200;-63
2022/09/22 05:55:47;;;;;;;;;;;;;;;7.31;75.92;102296.78;4976526;28;19977;-64
2022/09/22 05:58:12;;;;;;;;;;;;;;;7.27;75.67;102306.09;4976302;28;19918;-59
2022/09/22 06:00:38;;;;;;;;;;;;;;;7.25;75.86;102302.47;4975723;28;19914;-59
2022/09/22 06:03:03;;;;;;;;;;;;;;;7.24;75.75;102302.38;4990449;28;19977;-59
2022/09/22 06:05:29;;;;;;;;;;;;;;;7.21;75.83;102302.22;4990920;28;19984;-59
2022/09/22 06:08:00;;;;;;;;;;;;;;;7.19;75.99;102302.13;4986881;28;19917;-59
2022/09/22 06:10:25;;;;;;;;;;;;;;;7.18;76.21;102304.63;4986247;28;19925;-59
2022/09/22 06:12:55;;;;;;;;;;;;;;;7.18;75.85;102309.81;4999713;28;19909;-59
2022/09/22 06:15:21;;;;;;;;;;;;;;;7.16;76.16;102307.13;4979783;28;19963;-59
2022/09/22 06:17:50;;;;;;;;;;;;;;;7.16;76.30;102303.66;4991606;28;19949;-59
2022/09/22 06:20:16;;;;;;;;;;;;;;;7.14;76.38;102304.44;4988959;28;19918;-59
2022/09/22 06:22:43;;;;;;;;;;;;;;;7.12;76.55;102306.03;4984519;28;19945;-58
2022/09/22 06:25:09;;;;;;;;;;;;;;;7.12;75.96;102308.63;4986978;28;20171;-59
2022/09/22 06:27:34;;;;;;;;;;;;;;;7.14;76.54;102306.16;4991912;28;19914;-59
2022/09/22 06:29:59;;;;;;;;;;;;;;;7.13;76.24;102291.38;4990709;28;19980;-58
2022/09/22 06:32:24;;;;;;;;;;;;;;;7.16;76.52;102298.47;4985560;28;20210;-60
2022/09/22 06:34:50;;;;;;;;;;;;;;;7.14;76.70;102304.44;4989279;28;19914;-59
2022/09/22 06:37:15;;;;;;;;;;;;;;;7.16;76.90;102294.16;4993802;28;19922;-59
2022/09/22 06:39:41;;;;;;;;;;;;;;;7.17;76.86;102301.16;4984917;28;20160;-58
2022/09/22 06:42:06;;;;;;;;;;;;;;;7.19;76.82;102294.34;4986319;28;19917;-59
2022/09/22 06:44:32;;;;;;;;;;;;;;;7.21;76.89;102291.84;5000088;28;19913;-59
2022/09/22 06:46:58;;;;;;;;;;;;;;;7.22;76.96;102298.81;4995810;28;19910;-59
2022/09/22 06:49:24;;;;;;;;;;;;;;;7.24;77.25;102299.78;4996950;28;20187;-58
2022/09/22 06:51:50;;;;;;;;;;;;;;;7.25;76.92;102302.47;5003543;28;20018;-59
2022/09/22 06:54:15;;;;;;;;;;;;;;;7.27;77.35;102294.78;5002786;28;19912;-59
2022/09/22 06:56:42;;;;;;;;;;;;;;;7.28;77.53;102292.28;4964108;28;19910;-59
2022/09/22 06:59:13;;;;;;;;;;;;;;;7.31;77.58;102296.78;4996034;28;19914;-59
2022/09/22 07:01:39;;;;;;;;;;;;;;;7.32;77.33;102295.97;4985473;28;19922;-59
2022/09/22 07:04:04;;;;;;;;;;;;;;;7.34;77.54;102296.97;4985759;28;19917;-59
2022/09/22 07:06:30;;;;;;;;;;;;;;;7.36;77.91;102297.97;4983111;28;19910;-59
2022/09/22 07:08:55;;;;;;;;;;;;;;;7.39;77.87;102290.38;4988899;28;19936;-59
2022/09/22 07:11:22;;;;;;;;;;;;;;;7.41;78.17;102282.66;4988670;28;19910;-59
2022/09/22 07:13:48;;;;;;;;;;;;;;;7.43;78.45;102281.06;4983883;28;20007;-59
2022/09/22 07:16:16;;;;;;;;;;;;;;;7.46;78.27;102289.03;4989309;28;20056;-59
2022/09/22 07:18:45;;;;;;;;;;;;;;;7.49;78.45;102294.41;4980652;28;19930;-59
2022/09/22 07:21:11;;;;;;;;;;;;;;;7.51;78.78;102287.59;4989322;28;19948;-59
2022/09/22 07:23:37;;;;;;;;;;;;;;;7.54;78.95;102290.38;4985201;28;19933;-59
2022/09/22 07:26:04;;;;;;;;;;;;;;;7.57;78.99;102281.88;4990205;28;20219;-58
2022/09/22 07:28:30;;;;;;;;;;;;;;;7.61;79.11;102289.06;4986168;28;19917;-59
2022/09/22 07:31:00;;;;;;;;;;;;;;;7.63;79.37;102282.25;4998822;28;19975;-59
2022/09/22 07:33:25;;;;;;;;;;;;;;;7.67;79.40;102281.63;4987579;28;19917;-58
2022/09/22 07:36:08;;;;;;;;;;;;;;;7.70;79.44;102286.97;4980994;28;20082;-59
2022/09/22 07:38:35;;;;;;;;;;;;;;;7.74;79.92;102285.47;4993194;28;19910;-58
2022/09/22 07:41:01;;;;;;;;;;;;;;;7.78;80.05;102287.44;4989672;28;19986;-59
2022/09/22 07:43:27;;;;;;;;;;;;;;;7.80;80.00;102285.81;4984810;28;19914;-59
2022/09/22 07:45:54;;;;;;;;;;;;;;;7.84;80.10;102287.81;4983683;28;19976;-59
2022/09/22 07:48:35;;;;;;;;;;;;;;;7.89;80.41;102288.06;4985233;28;19910;-59
2022/09/22 07:51:00;;;;;;;;;;;;;;;7.94;80.65;102291.81;4977993;28;19933;-60
2022/09/22 07:53:26;;;;;;;;;;;;;;;7.99;80.97;102290.38;4974835;28;19948;-60
2022/09/22 07:55:51;;;;;;;;;;;;;;;8.03;81.17;102292.34;4978851;28;20160;-60
2022/09/22 07:58:16;;;;;;;;;;;;;;;8.08;81.68;102288.31;4977126;28;19929;-62
2022/09/22 08:00:41;;;;;;;;;;;;;;;8.12;81.71;102292.84;4978882;28;19967;-62
2022/09/22 08:03:07;;;;;;;;;;;;;;;8.17;81.93;102283.66;4979023;28;20141;-62
2022/09/22 08:05:32;;;;;;;;;;;;;;;8.22;82.45;102283.00;4978486;28;19933;-63
2022/09/22 08:08:00;;;;;;;;;;;;;;;8.28;82.90;102280.75;4978906;28;19917;-62
2022/09/22 08:10:26;;;;;;;;;;;;;;;8.33;82.90;102277.59;4998285;28;19913;-63
2022/09/22 08:12:56;;;;;;;;;;;;;;;8.40;83.28;102273.66;4990895;28;19918;-62
2022/09/22 08:15:22;;;;;;;;;;;;;;;8.48;83.66;102272.38;4979526;28;19989;-62
2022/09/22 08:17:47;;;;;;;;;;;;;;;8.53;83.75;102270.97;4979642;28;19918;-63
2022/09/22 08:20:13;;;;;;;;;;;;;;;8.60;84.05;102272.16;4989448;28;19906;-62
2022/09/22 08:22:38;;;;;;;;;;;;;;;8.68;84.29;102275.22;4988345;28;19960;-63
2022/09/22 08:25:03;;;;;;;;;;;;;;;8.74;84.44;102266.84;4990285;28;19964;-62
2022/09/22 08:27:29;;;;;;;;;;;;;;;8.81;84.95;102267.25;4993838;28;19914;-59
2022/09/22 08:29:54;;;;;;;;;;;;;;;8.88;85.09;102261.56;5000762;28;19910;-59
2022/09/22 08:32:19;;;;;;;;;;;;;;;8.97;85.31;102262.88;4994336;28;19928;-59
2022/09/22 08:34:44;;;;;;;;;;;;;;;9.07;85.32;102262.56;4986763;28;19981;-59
2022/09/22 08:37:10;;;;;;;;;;;;;;;9.16;85.45;102255.22;4991378;28;19910;-59
2022/09/22 08:39:35;;;;;;;;;;;;;;;9.27;86.00;102261.00;4981738;28;20106;-59
2022/09/22 08:42:04;;;;;;;;;;;;;;;9.38;85.80;102261.53;4992275;28;19916;-59
2022/09/22 08:44:34;;;;;;;;;;;;;;;9.47;86.01;102259.41;4998656;28;19920;-59
2022/09/22 08:47:00;;;;;;;;;;;;;;;9.58;86.05;102268.63;4996966;28;19910;-60
2022/09/22 08:52:25;;;;;;;;;;;;;;;9.79;85.91;102264.44;4986650;28;20064;-59
2022/09/22 08:54:51;;;;;;;;;;;;;;;9.91;86.12;102268.53;4994890;28;19906;-59
2022/09/22 08:57:18;;;;;;;;;;;;;;;10.04;86.14;102266.56;4991164;28;19956;-60
2022/09/22 09:00:03;;;;;;;;;;;;;;;10.13;85.93;102267.00;4987644;28;20056;-60
2022/09/22 09:02:41;;;;;;;;;;;;;;;10.23;85.57;102269.22;4995222;28;19926;-61
2022/09/22 09:05:25;;;;;;;;;;;;;;;10.35;86.02;102268.94;4983837;28;20062;-60
2022/09/22 09:08:21;;;;;;;;;;;;;;;10.46;85.51;102269.47;4996790;28;19913;-59
2022/09/22 09:10:46;;;;;;;;;;;;;;;10.60;85.30;102265.78;4994616;28;19910;-60
2022/09/22 09:13:36;;;;;;;;;;;;;;;10.72;85.20;102272.38;4994930;28;19981;-59
2022/09/22 09:16:13;;;;;;;;;;;;;;;10.85;85.21;102274.72;4992673;28;19910;-59
2022/09/22 09:18:43;;;;;;;;;;;;;;;10.99;84.92;102274.44;4992591;28;20100;-60
2022/09/22 09:21:12;;;;;;;;;;;;;;;11.09;84.64;102269.72;4970695;28;19959;-59
2022/09/22 09:23:50;;;;;;;;;;;;;;;11.23;84.35;102267.72;4997692;28;19909;-59
2022/09/22 09:26:17;;;;;;;;;;;;;;;11.36;84.33;102261.31;4984223;28;19941;-60
2022/09/22 09:28:52;;;;;;;;;;;;;;;11.50;84.10;102261.91;4982437;28;20164;-60
2022/09/22 09:31:26;;;;;;;;;;;;;;;11.64;83.27;102271.22;4983977;28;19906;-60
2022/09/22 09:34:06;;;;;;;;;;;;;;;11.75;82.01;102263.84;4982487;28;19992;-60
2022/09/22 09:36:33;;;;;;;;;;;;;;;11.91;81.36;102262.75;4979661;28;20056;-63
2022/09/22 09:39:01;;;;;;;;;;;;;;;12.03;81.19;102259.75;4984371;28;19933;-62
2022/09/22 09:41:31;;;;;;;;;;;;;;;12.12;81.01;102260.16;4980396;28;19910;-63
2022/09/22 09:43:57;;;;;;;;;;;;;;;12.26;80.74;102258.06;4974804;28;19910;-64
2022/09/22 09:46:46;;;;;;;;;;;;;;;12.40;79.93;102262.94;4983368;28;19980;-64
2022/09/22 09:49:19;;;;;;;;;;;;;;;12.56;79.14;102259.19;4969405;28;19968;-64
2022/09/22 09:51:46;;;;;;;;;;;;;;;12.69;78.33;102254.50;4978733;28;19926;-64
2022/09/22 09:54:12;;;;;;;;;;;;;;;12.81;77.67;102255.78;4986821;28;19992;-64
2022/09/22 09:56:57;;;;;;;;;;;;;;;12.94;77.35;102255.41;4985345;28;19917;-64
2022/09/22 10:02:12;;;;;;;;;;;;;;;13.22;76.30;102249.44;4987771;28;19917;-64
2022/09/22 10:04:38;;;;;;;;;;;;;;;13.33;75.64;102249.81;4990882;28;19910;-63
2022/09/22 10:07:15;;;;;;;;;;;;;;;13.44;75.92;102247.63;4982902;28;19930;-59
2022/09/22 10:09:40;;;;;;;;;;;;;;;13.58;75.23;102240.22;4984619;28;19916;-60
2022/09/22 10:12:18;;;;;;;;;;;;;;;13.70;75.01;102243.25;4984227;28;19917;-60
2022/09/22 10:14:47;;;;;;;;;;;;;;;13.83;74.48;102241.03;4982037;28;19910;-60
2022/09/22 10:17:19;;;;;;;;;;;;;;;13.94;74.14;102242.28;4980774;28;19942;-60
2022/09/22 10:19:44;;;;;;;;;;;;;;;14.04;73.43;102236.47;4988483;28;19953;-59
2022/09/22 10:22:29;;;;;;;;;;;;;;;14.15;73.14;102241.16;4998348;28;19921;-59
2022/09/22 10:24:56;;;;;;;;;;;;;;;14.31;72.04;102232.94;4986306;28;20200;-60
2022/09/22 10:27:23;;;;;;;;;;;;;;;14.43;71.28;102224.56;4982516;28;20137;-59
2022/09/22 10:30:07;;;;;;;;;;;;;;;14.55;71.32;102226.66;4983549;28;19910;-59
2022/09/22 10:32:32;;;;;;;;;;;;;;;14.68;70.07;102226.19;5002043;28;19929;-60
2022/09/22 10:34:58;;;;;;;;;;;;;;;14.83;70.22;102225.75;4987236;28;20061;-59
2022/09/22 10:37:26;;;;;;;;;;;;;;;14.91;69.39;102221.59;4986791;28;20164;-59
2022/09/22 10:39:53;;;;;;;;;;;;;;;15.01;69.16;102214.00;4988714;28;20145;-60
2022/09/22 10:42:18;;;;;;;;;;;;;;;15.10;69.28;102211.59;4984858;28;19933;-59
2022/09/22 10:44:43;;;;;;;;;;;;;;;15.18;68.34;102211.81;4985559;28;20157;-60
2022/09/22 10:47:15;;;;;;;;;;;;;;;15.24;68.30;102210.22;4985195;28;20503;-60
2022/09/22 10:49:40;;;;;;;;;;;;;;;15.33;70.00;102206.97;4982865;28;19937;-59
2022/09/22 10:52:24;;;;;;;;;;;;;;;15.44;68.59;102208.13;4984811;28;19926;-59
2022/09/22 10:55:13;;;;;;;;;;;;;;;15.57;68.04;102208.41;4992672;28;20133;-59
2022/09/22 10:57:51;;;;;;;;;;;;;;;15.64;65.72;102200.75;4996854;28;19913;-59
2022/09/22 11:00:18;;;;;;;;;;;;;;;15.74;65.91;102203.59;4987874;28;19929;-59
2022/09/22 11:02:54;;;;;;;;;;;;;;;15.80;66.39;102207.28;4979896;28;19910;-59
2022/09/22 11:14:05;;;;;;;;;;;;;;;16.18;65.54;102190.63;4992924;28;20066;-60
2022/09/22 11:16:39;;;;;;;;;;;;;;;16.25;65.27;102196.88;4998685;28;19988;-61
2022/09/22 11:19:24;;;;;;;;;;;;;;;16.33;63.68;102192.69;4977825;28;20131;-60
2022/09/22 11:21:56;;;;;;;;;;;;;;;16.39;64.24;102182.28;4991893;28;19952;-60
2022/09/22 11:24:27;;;;;;;;;;;;;;;16.39;63.69;102189.31;4979106;28;20157;-60
2022/09/22 11:26:58;;;;;;;;;;;;;;;16.39;63.52;102184.94;4978053;28;19953;-60
2022/09/22 11:29:25;;;;;;;;;;;;;;;16.43;64.60;102184.13;4987939;28;19933;-59
2022/09/22 11:32:09;;;;;;;;;;;;;;;16.47;61.85;102178.09;4981750;28;19918;-59
2022/09/22 11:34:43;;;;;;;;;;;;;;;16.54;62.72;102175.56;4984583;28;19917;-59
2022/09/22 11:37:24;;;;;;;;;;;;;;;16.57;61.96;102173.91;4988620;28;19910;-63
2022/09/22 11:39:55;;;;;;;;;;;;;;;16.59;61.90;102169.56;4989454;28;20091;-63
2022/09/22 11:42:38;;;;;;;;;;;;;;;16.63;61.97;102175.78;4989886;28;20104;-63
2022/09/22 11:45:18;;;;;;;;;;;;;;;16.65;62.74;102167.03;4989611;28;19917;-63
2022/09/22 11:47:45;;;;;;;;;;;;;;;16.65;61.94;102163.53;4984885;28;19910;-63
2022/09/22 11:50:23;;;;;;;;;;;;;;;16.63;61.76;102152.97;4986777;28;19910;-63
2022/09/22 11:53:15;;;;;;;;;;;;;;;16.64;61.99;102157.38;4994075;28;19910;-63
2022/09/22 11:55:59;;;;;;;;;;;;;;;16.66;63.61;102152.16;4986393;28;20080;-63
2022/09/22 11:58:27;;;;;;;;;;;;;;;16.73;62.36;102147.88;4980349;28;20152;-63
2022/09/22 12:00:59;;;;;;;;;;;;;;;16.77;62.32;102147.06;4997732;28;20053;-64
2022/09/22 12:04:00;;;;;;;;;;;;;;;16.82;63.50;102142.81;4993379;28;19924;-64
2022/09/22 12:06:29;;;;;;;;;;;;;;;16.94;62.34;102139.53;4924112;28;20089;-59
2022/09/22 12:09:05;;;;;;;;;;;;;;;17.00;60.47;102137.91;4982170;28;19948;-60
2022/09/22 12:11:33;;;;;;;;;;;;;;;17.05;59.74;102130.09;4989570;28;20072;-59
2022/09/22 12:13:59;;;;;;;;;;;;;;;17.07;60.15;102120.44;4990359;28;20149;-60
2022/09/22 12:16:38;;;;;;;;;;;;;;;17.10;60.23;102119.63;4985368;28;20152;-60
2022/09/22 12:19:03;;;;;;;;;;;;;;;17.16;59.83;102118.00;4982930;28;19925;-60
2022/09/22 12:21:47;;;;;;;;;;;;;;;17.25;61.37;102117.25;4985601;28;19941;-60
2022/09/22 12:24:13;;;;;;;;;;;;;;;17.32;58.89;102105.06;4985589;28;19917;-60
2022/09/22 12:26:38;;;;;;;;;;;;;;;17.38;61.22;102102.53;4987137;28;19906;-60
2022/09/22 12:29:15;;;;;;;;;;;;;;;17.44;60.14;102102.63;4983937;28;20145;-59
2022/09/22 12:31:42;;;;;;;;;;;;;;;17.51;59.88;102095.69;4986477;28;19930;-60
2022/09/22 12:34:17;;;;;;;;;;;;;;;17.60;60.49;102092.28;4983963;28;19910;-60
2022/09/22 12:36:43;;;;;;;;;;;;;;;17.68;59.39;102095.94;4986822;28;19922;-60
2022/09/22 12:39:15;;;;;;;;;;;;;;;17.77;60.43;102090.81;4982499;28;19931;-60
2022/09/22 12:41:42;;;;;;;;;;;;;;;17.86;61.28;102085.66;4980211;28;20161;-60
2022/09/22 12:44:12;;;;;;;;;;;;;;;17.90;57.96;102082.22;4979959;28;19922;-60
2022/09/22 12:46:41;;;;;;;;;;;;;;;17.96;57.36;102076.16;4966934;28;19976;-60
2022/09/22 12:49:08;;;;;;;;;;;;;;;18.02;57.68;102076.22;4984926;28;19926;-60
2022/09/22 12:51:33;;;;;;;;;;;;;;;18.09;55.97;102079.81;4992363;28;20143;-60
2022/09/22 12:54:17;;;;;;;;;;;;;;;18.15;56.39;102077.25;4982655;28;19910;-60
2022/09/22 12:56:45;;;;;;;;;;;;;;;18.21;56.38;102073.81;4983616;28;19910;-60
2022/09/22 12:59:29;;;;;;;;;;;;;;;18.23;56.10;102062.41;4992390;28;19926;-60
2022/09/22 13:02:15;;;;;;;;;;;;;;;18.29;56.42;102065.97;4988613;28;19917;-60
2022/09/22 13:05:00;;;;;;;;;;;;;;;18.33;56.63;102065.13;4963701;28;19910;-60
2022/09/22 13:07:34;;;;;;;;;;;;;;;18.33;56.59;102060.72;4981737;28;19927;-64